PST,Max TemperatureF,Mean TemperatureF,Min TemperatureF,Max Dew PointF,MeanDew PointF,Min DewpointF,Max Humidity, Mean Humidity, Min Humidity, Max Sea Level PressureIn, Mean Sea Level PressureIn, Min Sea Level PressureIn, Max VisibilityMiles, Mean VisibilityMiles, Min VisibilityMiles, Max Wind SpeedMPH, Mean Wind SpeedMPH, Max Gust SpeedMPH,PrecipitationIn, CloudCover, Events, WindDirDegrees
2012-12-1,66,63,59,59,57,55,90,82,73,30.17,30.11,30.06,10,7,2,8,4,12,0.04,8,Rain,162
2012-12-2,63,61,58,58,56,55,93,86,78,30.14,30.09,30.05,10,7,2,10,5,15,0.14,8,Rain,138
2012-12-3,68,63,57,58,56,53,100,82,63,30.17,30.12,30.07,10,7,2,10,5,17,0.06,6,Rain,151
2012-12-4,71,62,53,56,51,45,93,72,51,30.22,30.16,30.12,10,7,2,6,2,9,0.00,3,,129
2012-12-5,69,58,47,54,50,41,93,71,49,30.12,30.04,29.99,10,6,0,9,3,,0.00,1,Fog,126
2012-12-6,67,60,53,54,52,50,93,76,58,30.02,29.93,29.85,7,3,0,10,4,20,0.00,3,Fog,123
2012-12-7,72,61,49,52,48,39,86,65,44,29.95,29.91,29.88,10,8,5,9,2,12,0.00,0,,134
2012-12-8,67,56,45,52,47,37,96,74,52,30.00,29.94,29.88,10,4,0,9,2,13,0.00,2,Fog,127
2012-12-9,69,58,47,52,47,43,93,67,40,30.11,30.01,29.96,9,4,0,7,2,12,0.00,4,Fog,127
2012-12-10,74,60,46,42,38,31,74,47,20,30.12,30.07,30.02,10,10,8,9,2,12,0.00,0,,213
2012-12-11,72,59,45,52,42,33,93,59,25,30.04,29.98,29.91,10,8,4,12,3,15,0.00,1,,161
2012-12-12,58,56,53,52,48,45,93,78,62,29.96,29.88,29.81,10,8,2,15,8,21,0.21,8,Rain,143
2012-12-13,59,52,44,51,44,37,93,72,51,29.81,29.75,29.70,10,10,6,13,4,21,0.03,4,Rain,213
2012-12-14,55,47,39,41,36,30,85,63,41,30.00,29.87,29.73,10,10,10,13,4,20,0.09,5,Rain,155
2012-12-15,60,51,42,43,35,25,86,56,26,30.07,30.00,29.95,10,10,10,16,4,22,0.00,4,,297
2012-12-16,55,53,50,49,44,37,89,74,59,30.17,30.12,30.06,10,6,2,12,4,18,0.01,8,Rain,129
2012-12-17,61,57,52,51,48,46,89,75,60,30.16,30.08,29.97,10,8,5,8,2,10,T,8,Rain,210
2012-12-18,60,53,46,52,42,18,93,62,30,30.00,29.89,29.78,10,8,2,28,10,37,0.25,6,Rain,348
2012-12-19,59,50,41,22,17,10,45,30,15,30.26,30.16,30.00,10,10,10,26,7,35,0.00,0,,334
2012-12-20,64,50,35,24,18,10,56,35,13,30.22,30.14,30.06,10,10,10,13,3,15,0.00,0,,330
2012-12-21,65,51,37,37,25,17,62,40,17,30.11,30.06,30.01,10,10,10,9,2,12,0.00,0,,149
2012-12-22,60,49,38,47,37,27,83,56,29,30.18,30.11,30.04,10,8,3,10,2,14,T,4,Rain,165
2012-12-23,60,55,49,49,46,43,93,73,53,30.22,30.15,30.09,10,8,2,10,2,14,T,7,,164
2012-12-24,62,54,46,53,46,32,96,68,40,30.10,30.05,29.97,10,6,2,14,5,18,0.53,6,Rain,114
2012-12-25,60,52,44,41,36,28,82,57,31,30.09,30.03,29.97,10,10,10,6,2,10,0.00,1,,331
2012-12-26,60,54,47,48,42,34,93,67,40,29.97,29.93,29.88,10,8,1,14,7,23,0.23,4,Rain,252
2012-12-27,60,51,42,33,31,27,58,44,30,30.09,29.99,29.93,10,10,10,23,9,29,0.00,0,,305
2012-12-28,60,49,37,33,28,22,70,47,23,30.15,30.09,30.06,10,10,10,12,3,15,0.00,0,,258
2012-12-29,51,45,38,42,35,28,86,73,60,30.08,30.03,29.96,10,9,2,15,4,18,0.32,6,Rain-Thunderstorm,178
2012-12-30,54,45,35,36,33,29,89,64,38,30.06,29.97,29.91,10,10,10,22,5,26,T,2,Rain,328
2012-12-31,57,48,39,39,30,25,67,49,30,30.23,30.16,30.07,10,10,6,13,4,16,0.00,0,,65